This is the latest recevied weather packets stored in our database for station/object SP8C-13. If no packets are shown the sender has not sent any weather packets the latest 10 day(s).
| Time | Temp. | Humidity | Pressure | Rain* | Wind** | Luminosity | Snow |
|---|---|---|---|---|---|---|---|
| 1777680816 | 2.78° C | 80% | 1025.7 hPa | - | - | - | - |
| 1777679016 | 3.89° C | 79% | 1025.7 hPa | - | - | - | - |
| 1777677215 | 4.44° C | 77% | 1025.5 hPa | - | - | - | - |
| 1777675415 | 3.89° C | 79% | 1025.6 hPa | - | - | - | - |
| 1777673615 | 5.56° C | 75% | 1025.5 hPa | - | - | - | - |
| 1777671815 | 5.56° C | 73% | 1025.4 hPa | - | - | - | - |
| 1777670015 | 6.67° C | 70% | 1025.2 hPa | - | - | - | - |
| 1777668214 | 7.78° C | 67% | 1025.1 hPa | - | - | - | - |
| 1777666414 | 8.89° C | 60% | 1024.9 hPa | - | - | - | - |
| 1777664614 | 8.89° C | 62% | 1024.9 hPa | - | - | - | - |
| 1777662814 | 9.44° C | 60% | 1024.8 hPa | - | - | - | - |
| 1777661013 | 11.11° C | 57% | 1024.5 hPa | - | - | - | - |
| 1777659213 | 11.67° C | 55% | 1024.3 hPa | - | - | - | - |
| 1777657413 | 13.33° C | 51% | 1023.9 hPa | - | - | - | - |
| 1777655613 | 15° C | 47% | 1023.9 hPa | - | - | - | - |
| 1777653813 | 16.11° C | 46% | 1023.7 hPa | - | - | - | - |
| 1777652013 | 16.67° C | 44% | 1024 hPa | - | - | - | - |
| 1777650213 | 16.11° C | 44% | 1024 hPa | - | - | - | - |
| 1777648412 | 16.11° C | 44% | 1024.1 hPa | - | - | - | - |
| 1777646613 | 16.67° C | 44% | 1024.2 hPa | - | - | - | - |
| 1777644812 | 17.78° C | 42% | 1024.2 hPa | - | - | - | - |
| 1777643012 | 18.89° C | 39% | 1024.3 hPa | - | - | - | - |
| 1777641212 | 18.33° C | 40% | 1024.5 hPa | - | - | - | - |
| 1777639412 | 18.33° C | 39% | 1024.9 hPa | - | - | - | - |
| 1777637612 | 17.78° C | 40% | 1025 hPa | - | - | - | - |
* Rain since midnight (hover to see other rain measurements)
** Current wind speed in m/s (hover to see current wind gust speed)